createdAt,value
2018-10-21T00:01:17.000Z,54.458
2018-10-21T00:11:17.000Z,54.485
2018-10-21T00:21:17.000Z,54.493
2018-10-21T00:31:17.000Z,54.597
2018-10-21T00:41:17.000Z,54.552
2018-10-21T00:51:17.000Z,54.582
2018-10-21T01:01:17.000Z,54.653
2018-10-21T01:11:17.000Z,54.682
2018-10-21T01:21:17.000Z,54.722
2018-10-21T01:31:17.000Z,54.697
2018-10-21T01:41:17.000Z,54.758
2018-10-21T01:51:17.000Z,54.797
2018-10-21T02:01:17.000Z,54.872
2018-10-21T02:11:17.000Z,54.9
2018-10-21T02:21:17.000Z,54.917
2018-10-21T02:31:17.000Z,55.032
2018-10-21T02:41:18.000Z,54.964
2018-10-21T02:51:17.000Z,55.048
2018-10-21T03:01:17.000Z,55.099
2018-10-21T03:11:17.000Z,55.181
2018-10-21T03:21:18.000Z,55.222
2018-10-21T03:31:18.000Z,55.166
2018-10-21T03:41:18.000Z,55.269
2018-10-21T03:51:18.000Z,55.222
2018-10-21T04:01:18.000Z,55.243
2018-10-21T04:11:18.000Z,55.166
2018-10-21T04:21:18.000Z,55.127
2018-10-21T04:31:18.000Z,55.062
2018-10-21T04:41:18.000Z,55.06
2018-10-21T04:51:18.000Z,55.07
2018-10-21T05:01:19.000Z,55.101
2018-10-21T05:11:18.000Z,55.076
2018-10-21T05:21:18.000Z,55.035
2018-10-21T05:31:18.000Z,55.075
2018-10-21T05:41:18.000Z,55.103
2018-10-21T05:51:18.000Z,55.115
2018-10-21T06:01:18.000Z,55.154
2018-10-21T06:11:18.000Z,55.077
2018-10-21T06:21:18.000Z,54.649
2018-10-21T06:31:18.000Z,54.59
2018-10-21T06:41:18.000Z,54.407
2018-10-21T06:51:18.000Z,54.523
2018-10-21T07:01:18.000Z,54.501
2018-10-21T07:11:18.000Z,54.492
2018-10-21T07:21:18.000Z,54.492
2018-10-21T07:31:18.000Z,54.475
2018-10-21T07:41:18.000Z,54.529
2018-10-21T07:51:18.000Z,54.507
2018-10-21T08:01:18.000Z,54.33
2018-10-21T08:11:18.000Z,54.213
2018-10-21T08:21:18.000Z,54.057
2018-10-21T08:31:18.000Z,53.913
2018-10-21T08:41:18.000Z,53.492
2018-10-21T08:51:18.000Z,53.379
2018-10-21T09:01:18.000Z,52.798
2018-10-21T09:11:18.000Z,52.647
2018-10-21T09:21:18.000Z,52.761
2018-10-21T09:31:20.000Z,52.537
2018-10-21T09:41:18.000Z,51.938
2018-10-21T09:51:19.000Z,51.235
2018-10-21T10:01:18.000Z,50.523
2018-10-21T10:11:18.000Z,49.622
2018-10-21T10:21:18.000Z,49.012
2018-10-21T10:31:18.000Z,48.359
2018-10-21T10:41:18.000Z,47.918
2018-10-21T10:51:18.000Z,48.287
2018-10-21T11:01:18.000Z,48.217
2018-10-21T11:11:19.000Z,47.633
2018-10-21T11:21:18.000Z,47.7
2018-10-21T11:31:19.000Z,48.449
2018-10-21T11:41:19.000Z,48.727
2018-10-21T11:51:19.000Z,48.466
2018-10-21T12:01:19.000Z,48.95
2018-10-21T12:11:19.000Z,49.278
2018-10-21T12:21:19.000Z,48.979
2018-10-21T12:31:19.000Z,49.148
2018-10-21T12:41:19.000Z,49.329
2018-10-21T12:51:19.000Z,49.499
2018-10-21T13:01:20.000Z,49.349
2018-10-21T13:11:19.000Z,49.414
2018-10-21T13:21:19.000Z,49.21
2018-10-21T13:31:19.000Z,49.21
2018-10-21T13:41:19.000Z,49.104
2018-10-21T13:51:19.000Z,49.477
2018-10-21T14:01:19.000Z,49.519
2018-10-21T14:11:21.000Z,50.375
2018-10-21T14:21:19.000Z,50.443
2018-10-21T14:31:19.000Z,50.369
2018-10-21T14:41:19.000Z,49.897
2018-10-21T14:51:19.000Z,50.057
2018-10-21T15:01:19.000Z,49.952
2018-10-21T15:11:19.000Z,49.782
2018-10-21T15:21:20.000Z,49.881
2018-10-21T15:31:19.000Z,50.21
2018-10-21T15:41:19.000Z,50.342
2018-10-21T15:51:19.000Z,50.482
2018-10-21T16:01:19.000Z,50.397
2018-10-21T16:11:19.000Z,50.396
2018-10-21T16:21:19.000Z,50.53
2018-10-21T16:31:21.000Z,50.56
2018-10-21T16:41:19.000Z,50.755
2018-10-21T16:51:19.000Z,50.933
2018-10-21T17:01:19.000Z,51.285
2018-10-21T17:11:19.000Z,51.369
2018-10-21T17:21:19.000Z,51.634
2018-10-21T17:31:19.000Z,51.935
2018-10-21T17:41:19.000Z,53.013
2018-10-21T17:51:19.000Z,54.376
2018-10-21T18:01:19.000Z,56.843
2018-10-21T18:11:19.000Z,55.915
2018-10-21T18:21:19.000Z,55.377
2018-10-21T18:31:19.000Z,55.256
2018-10-21T18:41:19.000Z,54.997
2018-10-21T18:51:19.000Z,54.92
2018-10-21T19:01:19.000Z,54.69
2018-10-21T19:11:19.000Z,54.536
2018-10-21T19:21:19.000Z,54.451
2018-10-21T19:31:19.000Z,54.352
2018-10-21T19:41:19.000Z,54.254
2018-10-21T19:51:19.000Z,54.2
2018-10-21T20:01:19.000Z,54.233
2018-10-21T20:11:19.000Z,54.252
2018-10-21T20:21:20.000Z,54.133
2018-10-21T20:31:20.000Z,54.005
2018-10-21T20:41:20.000Z,54.196
2018-10-21T20:51:20.000Z,54.425
2018-10-21T21:01:20.000Z,54.537
2018-10-21T21:11:20.000Z,54.508
2018-10-21T21:21:21.000Z,54.512
2018-10-21T21:41:20.000Z,54.457
2018-10-21T21:51:20.000Z,54.441
2018-10-21T22:01:20.000Z,54.394
2018-10-21T22:11:20.000Z,54.561
2018-10-21T22:21:20.000Z,54.536
2018-10-21T22:31:20.000Z,54.596
2018-10-21T22:41:22.000Z,54.54
2018-10-21T22:51:20.000Z,54.611
2018-10-21T23:01:20.000Z,54.62
2018-10-21T23:11:20.000Z,54.681
2018-10-21T23:21:20.000Z,54.71
2018-10-21T23:31:20.000Z,54.688
2018-10-21T23:41:20.000Z,54.643
2018-10-21T23:51:20.000Z,54.639
